Time;durP1;ratioP1;P1;durP2;ratioP2;P2;SDS_P1;SDS_P2;PMS_P1;PMS_P2;Temp;Humidity;BMP_temperature;BMP_pressure;BME280_temperature;BME280_humidity;BME280_pressure;Samples;Min_cycle;Max_cycle;Signal;HPM_P1;HPM_P2
2022/12/01 00:02:13;;;;;;;;;50.40;40.40;;;;;6.90;55.19;99781.56;6166429;28;96630;-63
2022/12/01 00:05:16;;;;;;;;;55.00;42.00;;;;;6.86;55.06;99787.44;6185277;28;96706;-63
2022/12/01 00:08:20;;;;;;;;;57.20;45.80;;;;;6.82;55.44;99773.56;6185213;28;97270;-62
2022/12/01 00:11:22;;;;;;;;;53.00;42.80;;;;;6.89;55.35;99784.44;6185540;28;96530;-63
2022/12/01 00:14:25;;;;;;;;;50.75;41.75;;;;;6.88;55.37;99780.91;6186670;28;96871;-63
2022/12/01 00:17:30;;;;;;;;;52.00;41.00;;;;;6.92;55.12;99786.75;6184863;28;96345;-63
2022/12/01 00:20:34;;;;;;;;;55.60;44.00;;;;;6.91;55.30;99783.22;6186377;28;96210;-63
2022/12/01 00:23:38;;;;;;;;;49.00;39.80;;;;;6.94;55.39;99785.56;6168668;28;96853;-63
2022/12/01 00:26:41;;;;;;;;;53.60;42.40;;;;;6.96;55.09;99774.66;6186167;28;96404;-63
2022/12/01 00:29:45;;;;;;;;;50.50;41.00;;;;;6.95;55.26;99781.88;6186060;28;96404;-63
2022/12/01 00:32:51;;;;;;;;;51.20;41.60;;;;;7.01;55.02;99782.16;6186313;28;96345;-63
2022/12/01 00:35:58;;;;;;;;;50.00;41.00;;;;;6.99;55.03;99786.91;6186744;28;96301;-63
2022/12/01 00:39:02;;;;;;;;;54.60;44.00;;;;;6.99;55.06;99787.69;6186437;28;96477;-63
2022/12/01 00:42:05;;;;;;;;;52.00;43.00;;;;;6.91;55.17;99787.75;6190289;28;96392;-63
2022/12/01 00:45:15;;;;;;;;;52.00;40.40;;;;;6.80;55.46;99797.03;6190658;28;96983;-63
2022/12/01 00:48:20;;;;;;;;;47.00;39.25;;;;;6.84;55.52;99800.22;6190011;28;96256;-63
2022/12/01 00:51:24;;;;;;;;;53.00;43.40;;;;;6.66;55.79;99773.66;6172454;28;96451;-63
2022/12/01 00:54:30;;;;;;;;;47.60;38.40;;;;;6.78;55.80;99798.22;6190123;28;96391;-62
2022/12/01 00:57:34;;;;;;;;;50.20;40.00;;;;;6.85;55.96;99799.19;6189688;28;96414;-63
2022/12/01 01:00:38;;;;;;;;;52.25;41.75;;;;;6.88;55.73;99797.00;6190120;28;96896;-63
2022/12/01 01:03:43;;;;;;;;;58.00;45.00;;;;;6.90;55.60;99784.25;6190149;28;96294;-63
2022/12/01 01:06:46;;;;;;;;;56.00;44.60;;;;;6.91;55.64;99777.03;6189664;28;96244;-63
2022/12/01 01:09:50;;;;;;;;;57.00;46.00;;;;;6.85;55.56;99778.56;6188669;28;96317;-63
2022/12/01 01:12:53;;;;;;;;;55.75;45.00;;;;;6.80;55.59;99780.94;6189830;28;96470;-63
2022/12/01 01:15:58;;;;;;;;;57.75;45.25;;;;;6.77;55.82;99769.75;6189625;28;96403;-62
2022/12/01 01:19:03;;;;;;;;;49.00;39.00;;;;;6.82;56.02;99770.06;6189679;28;96315;-62
2022/12/01 01:22:06;;;;;;;;;50.00;40.00;;;;;6.83;55.83;99761.84;6189819;28;96972;-63
2022/12/01 01:25:10;;;;;;;;;53.75;42.75;;;;;6.88;55.78;99758.63;6194112;28;96678;-63
2022/12/01 01:28:13;;;;;;;;;53.00;42.75;;;;;6.91;55.61;99763.63;6192940;28;96573;-63
2022/12/01 01:31:19;;;;;;;;;50.00;40.25;;;;;6.89;55.53;99757.63;6189379;28;96219;-63
2022/12/01 01:34:24;;;;;;;;;52.40;42.40;;;;;6.91;55.66;99748.38;6189597;28;96344;-64
2022/12/01 01:37:27;;;;;;;;;58.00;47.00;;;;;6.88;55.51;99751.44;6189306;28;96329;-64
2022/12/01 01:40:31;;;;;;;;;53.00;43.00;;;;;6.90;55.56;99753.91;6189328;28;96304;-63
2022/12/01 01:43:42;;;;;;;;;52.00;42.40;;;;;6.82;55.46;99740.56;6188815;28;96484;-62
2022/12/01 01:46:45;;;;;;;;;55.25;43.75;;;;;6.87;55.76;99755.13;6189012;28;96990;-63
2022/12/01 01:49:50;;;;;;;;;55.20;44.20;;;;;6.99;55.60;99757.41;6189444;28;96350;-62
2022/12/01 01:52:59;;;;;;;;;56.00;44.80;;;;;6.85;55.96;99754.44;6187209;28;96487;-62
2022/12/01 01:56:04;;;;;;;;;57.75;44.75;;;;;6.85;56.07;99751.78;6188298;28;96303;-63
2022/12/01 01:59:07;;;;;;;;;50.50;41.25;;;;;6.92;56.02;99750.06;6187223;28;96821;-62
2022/12/01 02:02:12;;;;;;;;;51.67;41.33;;;;;6.98;56.13;99745.84;6182184;28;96585;-62
2022/12/01 02:05:22;;;;;;;;;59.20;46.60;;;;;7.03;56.02;99748.00;6188729;28;96138;-62
2022/12/01 02:08:25;;;;;;;;;56.00;45.00;;;;;7.01;55.75;99748.16;6171114;28;96481;-62
2022/12/01 02:12:04;;;;;;;;;56.40;45.00;;;;;6.84;55.93;99747.41;6189106;28;96284;-62
2022/12/01 02:15:22;;;;;;;;;61.00;47.00;;;;;6.90;56.20;99743.19;6147108;28;96454;-62
2022/12/01 02:18:35;;;;;;;;;58.50;48.00;;;;;6.88;56.21;99750.59;6188470;28;96297;-63
2022/12/01 02:21:57;;;;;;;;;56.00;44.00;;;;;6.90;56.25;99744.03;6187784;28;96378;-63
2022/12/01 02:25:21;;;;;;;;;56.00;45.00;;;;;6.88;56.22;99743.38;6188205;28;96745;-63
2022/12/01 02:28:48;;;;;;;;;57.00;46.00;;;;;6.94;56.14;99749.88;6163155;28;96315;-62
2022/12/01 02:32:02;;;;;;;;;53.25;43.25;;;;;6.93;56.11;99757.09;6163869;28;96369;-62
2022/12/01 02:35:14;;;;;;;;;57.75;45.50;;;;;6.89;56.29;99746.91;6158073;28;96243;-62
2022/12/01 02:38:28;;;;;;;;;57.00;45.00;;;;;6.89;56.29;99749.59;6188528;28;96862;-62
2022/12/01 02:41:38;;;;;;;;;60.00;46.50;;;;;6.85;56.60;99751.78;6188338;28;96212;-62
2022/12/01 02:44:45;;;;;;;;;56.00;44.75;;;;;6.84;56.46;99747.41;6188350;28;96357;-62
2022/12/01 02:47:54;;;;;;;;;57.75;45.25;;;;;6.81;56.56;99742.41;6187505;28;96343;-62
2022/12/01 02:51:01;;;;;;;;;53.50;43.00;;;;;6.76;56.57;99726.03;6188112;28;96235;-62
2022/12/01 02:54:05;;;;;;;;;53.00;43.00;;;;;6.89;56.68;99737.00;6170057;28;96450;-62
2022/12/01 02:57:11;;;;;;;;;54.60;43.80;;;;;6.96;56.50;99735.28;6168103;28;96843;-63
2022/12/01 03:00:16;;;;;;;;;57.60;45.80;;;;;7.02;56.40;99724.88;6188067;28;96992;-62
2022/12/01 03:03:36;;;;;;;;;55.50;44.75;;;;;7.03;56.46;99730.06;6169226;28;97319;-62
2022/12/01 03:06:52;;;;;;;;;56.33;44.33;;;;;7.06;56.48;99726.16;6187412;28;96502;-63
2022/12/01 03:10:06;;;;;;;;;56.00;44.80;;;;;7.10;56.26;99727.47;6169672;28;96608;-62
2022/12/01 03:13:19;;;;;;;;;54.20;43.60;;;;;7.06;56.51;99734.22;6187803;28;96265;-62
2022/12/01 03:16:33;;;;;;;;;52.00;42.00;;;;;7.02;56.86;99733.75;6187678;28;96325;-62
2022/12/01 03:19:44;;;;;;;;;55.25;45.00;;;;;6.95;57.07;99727.41;6170527;28;96065;-62
2022/12/01 03:22:53;;;;;;;;;52.00;42.60;;;;;7.00;56.96;99726.88;6187079;28;96201;-62
2022/12/01 03:26:01;;;;;;;;;56.00;44.00;;;;;7.03;56.99;99737.25;6187740;28;96228;-62
2022/12/01 03:29:10;;;;;;;;;51.75;42.00;;;;;6.99;57.23;99727.91;6186855;28;96686;-61
2022/12/01 03:32:18;;;;;;;;;55.60;43.20;;;;;7.06;57.24;99718.97;6186725;28;96910;-64
2022/12/01 03:35:26;;;;;;;;;54.20;43.20;;;;;7.02;57.33;99712.28;6190707;28;97544;-63
2022/12/01 03:38:30;;;;;;;;;53.00;44.00;;;;;7.02;57.43;99722.19;6187460;28;96277;-62
2022/12/01 03:41:39;;;;;;;;;51.00;41.00;;;;;7.08;57.50;99711.59;6169298;28;96331;-62
2022/12/01 03:44:47;;;;;;;;;47.80;39.00;;;;;7.02;57.74;99706.09;6187025;28;96220;-63
2022/12/01 03:47:51;;;;;;;;;52.25;43.00;;;;;7.10;57.61;99706.03;6186614;28;96809;-62
2022/12/01 03:51:04;;;;;;;;;52.00;40.00;;;;;7.07;57.81;99709.91;6157979;28;96355;-64
2022/12/01 03:54:13;;;;;;;;;48.80;39.20;;;;;7.06;57.97;99704.72;6186031;28;96695;-63
2022/12/01 03:57:24;;;;;;;;;43.40;37.00;;;;;6.94;58.40;99702.44;6181635;28;96562;-64
2022/12/01 04:00:28;;;;;;;;;45.75;38.00;;;;;6.96;58.33;99702.28;6185769;28;96436;-63
2022/12/01 04:03:31;;;;;;;;;49.40;41.40;;;;;6.97;58.47;99698.59;6183464;28;96617;-63
2022/12/01 04:06:36;;;;;;;;;48.00;40.00;;;;;7.02;58.42;99701.56;6186168;28;96705;-62
2022/12/01 04:09:40;;;;;;;;;47.00;38.60;;;;;7.06;58.49;99696.69;6185219;28;96936;-62
2022/12/01 04:12:44;;;;;;;;;43.00;36.50;;;;;7.10;58.44;99689.94;6186277;28;96288;-62
2022/12/01 04:15:48;;;;;;;;;44.00;36.40;;;;;7.08;58.76;99692.81;6189667;28;96548;-63
2022/12/01 04:18:51;;;;;;;;;39.00;33.00;;;;;7.06;58.86;99694.00;6191144;28;96400;-64
2022/12/01 04:21:56;;;;;;;;;43.00;36.60;;;;;7.09;58.83;99699.81;6170847;28;96895;-62
2022/12/01 04:24:59;;;;;;;;;41.50;34.75;;;;;7.01;59.48;99699.06;6190624;28;96260;-62
2022/12/01 04:28:02;;;;;;;;;40.60;34.00;;;;;7.03;59.24;99683.63;6190305;28;96911;-61
2022/12/01 04:31:06;;;;;;;;;40.60;35.00;;;;;7.00;60.18;99675.94;6187167;28;96373;-63
2022/12/01 04:34:10;;;;;;;;;35.40;31.60;;;;;7.04;59.82;99677.28;6186626;28;96352;-62
2022/12/01 04:37:14;;;;;;;;;37.50;33.00;;;;;7.17;59.54;99690.91;6190230;28;96396;-62
2022/12/01 04:40:18;;;;;;;;;42.00;35.00;;;;;7.01;59.64;99669.56;6190590;28;96397;-62
2022/12/01 04:43:21;;;;;;;;;35.60;30.80;;;;;7.19;59.72;99694.22;6189141;28;96550;-62
2022/12/01 04:46:25;;;;;;;;;30.75;29.50;;;;;7.11;59.99;99697.81;6169702;28;98470;-62
2022/12/01 04:49:28;;;;;;;;;34.00;30.50;;;;;7.06;60.31;99688.63;6189237;28;96175;-61
2022/12/01 04:52:36;;;;;;;;;31.40;29.00;;;;;6.95;60.74;99696.09;6169740;28;96803;-63
2022/12/01 04:55:40;;;;;;;;;33.40;30.00;;;;;7.14;60.43;99689.41;6187094;28;96236;-62
2022/12/01 04:58:44;;;;;;;;;32.50;29.75;;;;;7.16;60.47;99695.44;6186302;28;96396;-62
2022/12/01 05:01:47;;;;;;;;;29.00;28.00;;;;;7.20;60.31;99696.72;6205181;28;96408;-62
2022/12/01 05:04:51;;;;;;;;;32.00;28.00;;;;;7.30;60.20;99701.84;6214349;28;96344;-62
2022/12/01 05:07:55;;;;;;;;;25.25;23.00;;;;;7.29;60.18;99703.69;6197564;28;96314;-62
2022/12/01 05:10:59;;;;;;;;;28.25;26.00;;;;;7.16;60.74;99699.94;6193404;28;96367;-62
2022/12/01 05:14:02;;;;;;;;;30.75;26.75;;;;;7.23;60.56;99703.59;6189745;28;96982;-61
2022/12/01 05:17:06;;;;;;;;;31.75;29.00;;;;;7.24;60.47;99697.19;6189291;28;96509;-61
2022/12/01 05:23:40;;;;;;;;;27.00;24.60;;;;;7.32;60.52;99710.56;6186983;28;96756;-62
2022/12/01 05:26:44;;;;;;;;;24.60;23.00;;;;;7.41;59.86;99704.09;6184383;28;96565;-62
2022/12/01 05:29:47;;;;;;;;;31.80;29.20;;;;;7.43;60.12;99703.94;6182218;28;97126;-62
2022/12/01 05:32:51;;;;;;;;;36.20;32.00;;;;;7.40;59.92;99710.47;6164612;28;97210;-61
2022/12/01 05:35:55;;;;;;;;;29.00;26.50;;;;;7.43;59.91;99715.47;6183964;28;96589;-61
2022/12/01 05:39:00;;;;;;;;;28.25;25.75;;;;;7.53;59.92;99717.88;6173902;28;97218;-63
2022/12/01 05:42:04;;;;;;;;;32.80;29.40;;;;;7.49;59.54;99714.75;6172388;28;96434;-62
2022/12/01 05:45:08;;;;;;;;;34.20;30.20;;;;;7.52;59.55;99721.63;6171636;28;96865;-63
2022/12/01 05:48:11;;;;;;;;;34.00;30.60;;;;;7.40;59.87;99715.84;6174247;28;96557;-62
2022/12/01 05:51:17;;;;;;;;;32.00;28.60;;;;;7.42;59.65;99721.03;6166886;28;96428;-62
2022/12/01 05:54:22;;;;;;;;;30.60;26.40;;;;;7.45;59.76;99726.03;6177852;28;96551;-61
2022/12/01 05:57:25;;;;;;;;;31.40;29.80;;;;;7.20;60.38;99698.56;6177754;28;97641;-62
2022/12/01 06:00:28;;;;;;;;;31.50;28.50;;;;;7.31;60.08;99723.13;6184069;28;96597;-61
2022/12/01 06:03:32;;;;;;;;;31.80;26.40;;;;;7.27;60.37;99731.72;6159542;28;97154;-64
2022/12/01 06:06:35;;;;;;;;;29.50;27.00;;;;;7.38;59.96;99724.06;6184517;28;96999;-62
2022/12/01 06:09:40;;;;;;;;;35.00;31.00;;;;;7.43;59.89;99734.25;6178368;28;96370;-61
2022/12/01 06:12:43;;;;;;;;;33.60;30.00;;;;;7.45;59.72;99737.59;6167999;28;96406;-62
2022/12/01 06:15:56;;;;;;;;;33.60;31.60;;;;;7.54;59.41;99741.88;6163807;28;96686;-62
2022/12/01 06:18:59;;;;;;;;;33.00;30.00;;;;;7.51;59.12;99739.56;6163612;28;96939;-61
2022/12/01 06:22:03;;;;;;;;;26.60;24.80;;;;;7.56;59.08;99742.53;6166156;28;97316;-62
2022/12/01 06:25:09;;;;;;;;;32.50;30.00;;;;;7.62;58.90;99741.81;6188158;28;97595;-61
2022/12/01 06:28:12;;;;;;;;;27.20;24.60;;;;;7.58;58.89;99737.81;6191897;28;96383;-61
2022/12/01 06:31:16;;;;;;;;;31.00;27.00;;;;;7.61;58.54;99736.63;6185103;28;96576;-62
2022/12/01 06:34:19;;;;;;;;;32.00;29.80;;;;;7.69;58.40;99734.69;6186449;28;96324;-62
2022/12/01 06:37:22;;;;;;;;;27.25;24.00;;;;;7.61;58.41;99737.47;6183669;28;96867;-62
2022/12/01 06:40:27;;;;;;;;;30.40;29.20;;;;;7.69;58.28;99745.41;6184701;28;97299;-62
2022/12/01 06:43:31;;;;;;;;;34.40;31.40;;;;;7.69;58.02;99742.72;6161987;28;96832;-62
2022/12/01 06:46:34;;;;;;;;;30.00;27.40;;;;;7.57;58.06;99738.84;6184928;28;97046;-63
2022/12/01 06:49:37;;;;;;;;;31.40;29.80;;;;;7.50;58.12;99740.56;6192533;28;96607;-62
2022/12/01 06:52:41;;;;;;;;;30.80;29.60;;;;;7.54;58.27;99736.50;6190165;28;96202;-62
2022/12/01 06:55:45;;;;;;;;;27.20;26.20;;;;;7.55;58.22;99738.19;6187221;28;96672;-62
2022/12/01 06:58:49;;;;;;;;;33.00;29.00;;;;;7.28;58.17;99730.72;6169655;28;96967;-63
2022/12/01 07:01:53;;;;;;;;;28.60;25.00;;;;;7.19;58.73;99737.97;6184772;28;96269;-62
2022/12/01 07:04:56;;;;;;;;;33.00;28.40;;;;;7.27;58.87;99742.44;6186813;28;96341;-61
2022/12/01 07:08:01;;;;;;;;;31.50;30.25;;;;;7.36;58.87;99739.50;6185748;28;96292;-61
2022/12/01 07:11:08;;;;;;;;;28.00;25.00;;;;;7.37;58.72;99743.03;6167477;28;96384;-61
2022/12/01 07:14:20;;;;;;;;;32.40;30.00;;;;;7.42;58.63;99735.28;6184244;28;96229;-62
2022/12/01 07:17:23;;;;;;;;;27.00;25.00;;;;;7.53;58.46;99737.50;6183829;28;96318;-62
2022/12/01 07:20:27;;;;;;;;;34.40;30.60;;;;;7.55;58.03;99745.38;6189709;28;96552;-64
2022/12/01 07:23:31;;;;;;;;;30.67;26.67;;;;;7.63;58.01;99735.41;6192788;28;96342;-63
2022/12/01 07:26:35;;;;;;;;;24.20;21.40;;;;;7.64;57.80;99741.59;6189694;28;96656;-62
2022/12/01 07:29:39;;;;;;;;;25.00;22.60;;;;;7.60;57.81;99741.16;6186704;28;96471;-62
2022/12/01 07:32:42;;;;;;;;;29.80;28.00;;;;;7.58;58.10;99736.97;6186662;28;96511;-62
2022/12/01 07:35:45;;;;;;;;;31.20;29.60;;;;;7.68;57.99;99740.22;6186537;28;96284;-62
2022/12/01 07:38:49;;;;;;;;;29.00;26.00;;;;;7.73;57.60;99745.88;6184165;28;97185;-63
2022/12/01 07:41:53;;;;;;;;;32.00;28.00;;;;;7.71;57.58;99735.34;6168068;28;96861;-62
2022/12/01 07:44:57;;;;;;;;;34.50;29.75;;;;;7.78;57.28;99738.94;6184240;28;96625;-63
2022/12/01 07:48:00;;;;;;;;;26.60;24.20;;;;;7.76;57.48;99735.63;6167577;28;96614;-63
2022/12/01 07:51:04;;;;;;;;;29.60;26.60;;;;;7.65;57.17;99732.56;6172612;28;96284;-64
2022/12/01 07:54:08;;;;;;;;;28.75;26.00;;;;;7.74;57.48;99743.03;6188820;28;96330;-63
2022/12/01 07:57:13;;;;;;;;;29.25;26.25;;;;;7.67;57.71;99743.94;6191196;28;96331;-62
2022/12/01 08:00:17;;;;;;;;;28.50;26.50;;;;;7.71;57.47;99738.03;6191535;28;96442;-63
2022/12/01 08:03:21;;;;;;;;;26.75;24.00;;;;;7.69;57.79;99742.72;6186990;28;96258;-63
2022/12/01 08:06:26;;;;;;;;;29.00;27.00;;;;;7.61;57.97;99740.13;6192342;28;96157;-63
2022/12/01 08:09:29;;;;;;;;;26.25;24.50;;;;;7.53;58.00;99742.88;6200458;28;96221;-63
2022/12/01 08:12:34;;;;;;;;;29.25;26.00;;;;;7.62;58.00;99751.72;6202615;28;96452;-63
2022/12/01 08:15:38;;;;;;;;;31.00;28.00;;;;;7.64;58.11;99746.97;6190282;28;96387;-62
2022/12/01 08:18:43;;;;;;;;;29.60;27.60;;;;;7.69;58.07;99748.09;6189411;28;96923;-63
2022/12/01 08:21:46;;;;;;;;;32.00;30.00;;;;;7.67;57.66;99755.50;6173244;28;96357;-63
2022/12/01 08:24:49;;;;;;;;;26.20;24.80;;;;;7.38;58.11;99745.50;6156405;28;97032;-64
2022/12/01 08:27:54;;;;;;;;;28.00;25.20;;;;;7.52;58.16;99751.97;6190649;28;96778;-62
2022/12/01 08:30:58;;;;;;;;;27.00;25.00;;;;;7.56;58.20;99744.38;6190607;28;96283;-63
2022/12/01 08:34:05;;;;;;;;;22.60;21.00;;;;;7.63;58.32;99756.03;6188292;28;96282;-64
2022/12/01 08:37:08;;;;;;;;;26.00;23.80;;;;;7.70;57.97;99759.69;6187960;28;96370;-63
2022/12/01 08:40:12;;;;;;;;;24.00;23.00;;;;;7.71;58.07;99764.88;6188900;28;96310;-63
2022/12/01 08:43:17;;;;;;;;;24.00;23.00;;;;;7.70;57.74;99757.00;6188700;28;96473;-63
2022/12/01 08:46:40;;;;;;;;;23.40;23.00;;;;;7.67;57.59;99758.19;6189566;28;96263;-63
2022/12/01 08:49:44;;;;;;;;;24.00;22.50;;;;;7.72;57.53;99765.72;6190299;28;96424;-63
2022/12/01 08:52:47;;;;;;;;;25.80;24.20;;;;;7.66;57.54;99767.25;6190587;28;96804;-65
2022/12/01 08:55:50;;;;;;;;;27.40;24.60;;;;;7.59;57.83;99757.41;6189405;28;96468;-64
2022/12/01 08:58:56;;;;;;;;;23.40;21.60;;;;;7.59;58.01;99773.53;6190302;28;96527;-63
2022/12/01 09:01:59;;;;;;;;;21.00;19.00;;;;;7.55;58.22;99774.91;6189675;28;96375;-63
2022/12/01 09:05:09;;;;;;;;;25.00;22.00;;;;;7.52;58.00;99765.38;6189475;28;96191;-63
2022/12/01 09:11:33;;;;;;;;;26.80;26.80;;;;;7.68;57.58;99769.75;6185401;28;96845;-64
2022/12/01 09:14:39;;;;;;;;;21.80;20.80;;;;;7.69;57.60;99763.38;6154194;28;97201;-64
2022/12/01 09:17:43;;;;;;;;;24.00;23.00;;;;;7.66;57.23;99758.38;6187676;28;96285;-64
2022/12/01 09:20:46;;;;;;;;;28.40;25.80;;;;;7.73;57.33;99762.81;6189480;28;96714;-64
2022/12/01 09:23:50;;;;;;;;;24.00;21.50;;;;;7.68;57.08;99759.84;6187417;28;96800;-63
2022/12/01 09:26:55;;;;;;;;;23.67;22.67;;;;;7.71;57.24;99759.50;6188152;28;97056;-64
2022/12/01 09:30:00;;;;;;;;;25.80;24.80;;;;;7.66;57.29;99756.53;6189049;28;96823;-63
2022/12/01 09:33:04;;;;;;;;;25.60;22.60;;;;;7.68;57.20;99761.69;6154545;28;96619;-64
2022/12/01 09:36:09;;;;;;;;;24.75;24.00;;;;;7.60;57.11;99751.03;6169372;28;96809;-64
2022/12/01 09:39:15;;;;;;;;;16.40;16.00;;;;;7.59;56.85;99752.88;6168094;28;98731;-64
2022/12/01 09:42:25;;;;;;;;;25.20;21.60;;;;;7.55;56.94;99753.44;6168472;28;98480;-64
2022/12/01 09:45:43;;;;;;;;;25.60;23.60;;;;;7.61;57.29;99753.56;6187377;28;96254;-64
2022/12/01 09:48:49;;;;;;;;;21.50;20.00;;;;;7.70;56.63;99744.41;6171055;28;96587;-64
2022/12/01 09:51:54;;;;;;;;;24.00;22.80;;;;;7.74;56.59;99743.03;6187667;28;96563;-64
2022/12/01 09:55:00;;;;;;;;;24.40;21.00;;;;;7.67;56.41;99750.13;6189007;28;96602;-64
2022/12/01 09:58:04;;;;;;;;;22.40;20.40;;;;;7.80;56.15;99741.47;6184958;28;97052;-64
2022/12/01 10:01:15;;;;;;;;;27.00;25.00;;;;;7.58;56.33;99729.75;6186999;28;97413;-63
2022/12/01 10:04:24;;;;;;;;;23.00;19.00;;;;;7.62;56.27;99739.13;6186848;28;96607;-64
2022/12/01 10:07:31;;;;;;;;;27.40;23.60;;;;;7.70;56.25;99732.84;6184800;28;96890;-64
2022/12/01 10:10:38;;;;;;;;;25.40;23.80;;;;;7.64;55.43;99731.72;6186908;28;96574;-63
2022/12/01 10:13:42;;;;;;;;;26.80;23.80;;;;;7.66;55.68;99745.78;6180123;28;96465;-63
2022/12/01 10:16:55;;;;;;;;;25.00;22.75;;;;;7.64;56.92;99734.41;6167668;28;96744;-64
2022/12/01 10:20:04;;;;;;;;;25.25;22.25;;;;;7.65;56.19;99733.38;6187680;28;96502;-65
2022/12/01 10:23:35;;;;;;;;;16.25;14.75;;;;;7.56;55.87;99720.22;6187600;28;96299;-66
2022/12/01 10:27:09;;;;;;;;;32.50;26.50;;;;;7.65;55.83;99719.13;6150693;28;96584;-64
2022/12/01 10:30:17;;;;;;;;;29.20;28.20;;;;;7.89;55.15;99739.53;6187463;28;96882;-66
2022/12/01 10:33:40;;;;;;;;;31.60;29.60;;;;;7.99;54.88;99735.56;6343551;27;96255;-64
2022/12/01 10:36:44;;;;;;;;;28.75;26.75;;;;;8.01;55.55;99735.38;6307208;27;96258;-63
2022/12/01 10:39:51;;;;;;;;;29.60;26.60;;;;;7.85;53.98;99731.00;6307004;27;96916;-65
2022/12/01 10:42:54;;;;;;;;;31.00;27.00;;;;;7.75;53.75;99720.53;6307768;27;96252;-65
2022/12/01 10:46:00;;;;;;;;;27.60;23.00;;;;;7.47;54.11;99716.78;6323889;27;96900;-65
2022/12/01 10:49:10;;;;;;;;;28.40;25.60;;;;;7.48;54.09;99710.38;6311608;27;98908;-66
2022/12/01 10:52:32;;;;;;;;;30.40;27.40;;;;;7.55;54.63;99713.19;6316235;27;96758;-66
2022/12/01 10:55:38;;;;;;;;;30.00;26.00;;;;;7.64;54.47;99709.41;6311451;27;96298;-65
2022/12/01 10:58:52;;;;;;;;;34.80;30.80;;;;;7.61;54.14;99705.25;6303626;27;96735;-64
2022/12/01 11:01:57;;;;;;;;;26.40;24.00;;;;;7.67;54.23;99707.19;6295143;27;96609;-65
2022/12/01 11:05:05;;;;;;;;;34.60;31.60;;;;;7.69;54.13;99705.16;6317424;27;96250;-64
2022/12/01 11:08:22;;;;;;;;;33.00;29.60;;;;;7.68;53.86;99699.97;6279280;27;98495;-64
2022/12/01 11:11:30;;;;;;;;;28.00;26.00;;;;;7.50;54.06;99696.81;6282868;27;96573;-67
2022/12/01 11:14:41;;;;;;;;;26.00;25.00;;;;;7.42;54.79;99695.03;6290230;27;96729;-66
2022/12/01 11:17:45;;;;;;;;;25.80;24.40;;;;;7.42;54.91;99691.53;6302343;27;96382;-65
2022/12/01 11:21:06;;;;;;;;;32.75;30.00;;;;;7.36;55.03;99695.75;6301668;27;96494;-65
2022/12/01 11:24:25;;;;;;;;;28.60;27.60;;;;;7.43;54.37;99693.19;6314863;27;98513;-65
2022/12/01 11:27:32;;;;;;;;;36.00;32.00;;;;;7.37;54.42;99692.06;6308417;27;96506;-66
2022/12/01 11:30:35;;;;;;;;;32.00;29.00;;;;;7.48;54.41;99696.16;6314646;27;96300;-66
2022/12/01 11:33:46;;;;;;;;;29.60;26.60;;;;;7.55;54.04;99700.59;6306299;27;96398;-66
2022/12/01 11:36:54;;;;;;;;;30.20;27.60;;;;;7.33;53.71;99682.72;6304389;27;96685;-66
2022/12/01 11:40:07;;;;;;;;;31.00;27.40;;;;;7.58;53.87;99692.19;6306740;27;96335;-65
2022/12/01 11:43:23;;;;;;;;;27.00;25.40;;;;;7.62;53.84;99685.47;6300023;27;96177;-66
2022/12/01 11:46:32;;;;;;;;;34.20;30.00;;;;;7.61;53.78;99691.84;6290812;27;96321;-66
2022/12/01 11:49:40;;;;;;;;;28.20;27.00;;;;;7.54;53.63;99695.41;6289133;27;96284;-66
2022/12/01 11:52:50;;;;;;;;;26.00;24.00;;;;;7.19;54.30;99692.38;6288324;27;96534;-66
2022/12/01 11:56:16;;;;;;;;;35.00;31.00;;;;;7.38;54.45;99696.41;6286541;27;96550;-65
2022/12/01 11:59:23;;;;;;;;;26.60;24.60;;;;;7.25;54.41;99688.13;6288083;27;96688;-66
2022/12/01 12:02:37;;;;;;;;;30.00;27.75;;;;;7.10;54.71;99674.69;6295655;27;97028;-66
2022/12/01 12:05:53;;;;;;;;;29.20;28.00;;;;;7.08;55.13;99675.91;6290245;27;96356;-65
2022/12/01 12:09:44;;;;;;;;;29.40;26.20;;;;;7.11;55.22;99694.28;6280893;27;96420;-65
2022/12/01 12:13:02;;;;;;;;;31.60;28.00;;;;;7.18;54.87;99692.56;6293980;27;96453;-64
2022/12/01 12:16:16;;;;;;;;;29.40;25.00;;;;;6.95;55.34;99688.03;6294062;27;96329;-66
2022/12/01 12:19:37;;;;;;;;;34.20;30.20;;;;;6.90;55.47;99692.25;6286634;27;96447;-64
2022/12/01 12:23:15;;;;;;;;;29.60;27.00;;;;;7.02;55.31;99690.84;6276270;27;96247;-66
2022/12/01 12:26:23;;;;;;;;;31.40;29.20;;;;;7.19;55.23;99689.69;6288530;27;98334;-65
2022/12/01 12:29:41;;;;;;;;;28.75;27.50;;;;;7.06;55.16;99692.16;6288715;27;96451;-65
2022/12/01 12:33:10;;;;;;;;;30.00;28.75;;;;;7.18;55.06;99692.56;6284076;27;96314;-66
2022/12/01 12:36:22;;;;;;;;;26.80;25.60;;;;;6.95;54.88;99684.53;6292354;27;96226;-66
2022/12/01 12:39:41;;;;;;;;;28.60;27.80;;;;;7.02;55.10;99700.72;6286457;27;97050;-64
2022/12/01 12:42:58;;;;;;;;;29.40;27.40;;;;;6.88;55.18;99684.41;6276378;27;96586;-65
2022/12/01 12:46:07;;;;;;;;;30.40;29.80;;;;;6.96;55.02;99676.31;6264803;27;97031;-66
2022/12/01 12:49:23;;;;;;;;;29.20;27.20;;;;;7.14;54.88;99686.72;6289680;27;96697;-65
2022/12/01 12:52:33;;;;;;;;;29.25;28.00;;;;;7.29;54.37;99692.13;6286129;27;96702;-65
2022/12/01 12:55:39;;;;;;;;;32.60;29.80;;;;;7.26;54.40;99687.13;6280935;27;96421;-65
2022/12/01 12:58:54;;;;;;;;;27.75;26.75;;;;;7.12;54.68;99688.75;6283813;27;97917;-64
2022/12/01 13:02:04;;;;;;;;;29.00;24.00;;;;;6.95;54.59;99679.16;6288929;27;96597;-63
2022/12/01 13:05:14;;;;;;;;;28.75;27.25;;;;;6.72;55.52;99692.56;6288311;27;96440;-65
2022/12/01 13:08:21;;;;;;;;;30.60;29.00;;;;;6.64;55.57;99687.25;6288079;27;96944;-66
2022/12/01 13:11:29;;;;;;;;;31.40;28.20;;;;;6.73;55.20;99688.88;6299259;27;97651;-65
2022/12/01 13:14:39;;;;;;;;;33.75;30.00;;;;;6.85;55.11;99694.66;6289533;27;96292;-65
2022/12/01 13:17:48;;;;;;;;;29.00;27.25;;;;;6.94;54.84;99696.25;6288802;27;96362;-64
2022/12/01 13:20:53;;;;;;;;;31.00;28.20;;;;;7.02;54.45;99690.84;6288075;27;96714;-66
2022/12/01 13:23:57;;;;;;;;;36.20;31.20;;;;;7.14;54.21;99700.13;6283245;27;96425;-65
2022/12/01 13:27:05;;;;;;;;;29.00;27.00;;;;;7.29;53.85;99690.28;6287259;27;96366;-65
2022/12/01 13:30:20;;;;;;;;;26.20;24.00;;;;;7.17;53.63;99683.69;6279259;27;96716;-65
2022/12/01 13:33:23;;;;;;;;;29.00;28.00;;;;;7.17;53.42;99685.53;6280639;27;97007;-65
2022/12/01 13:36:28;;;;;;;;;27.80;26.80;;;;;7.18;53.47;99693.41;6279304;27;96889;-64
2022/12/01 13:39:55;;;;;;;;;20.40;19.00;;;;;7.07;53.40;99688.47;6291457;27;97000;-65
2022/12/01 13:43:02;;;;;;;;;33.20;30.00;;;;;7.26;53.41;99697.84;6263957;27;96795;-65
2022/12/01 13:46:22;;;;;;;;;31.80;28.40;;;;;7.18;53.51;99692.56;6284603;27;96262;-65
2022/12/01 13:49:41;;;;;;;;;29.00;25.75;;;;;7.25;52.46;99694.34;6273413;27;96430;-64
2022/12/01 13:52:49;;;;;;;;;27.00;25.25;;;;;7.00;53.44;99675.94;6287601;27;96438;-65
2022/12/01 13:55:57;;;;;;;;;28.00;26.00;;;;;7.07;53.36;99704.56;6286871;27;97159;-64
2022/12/01 13:59:00;;;;;;;;;31.50;30.00;;;;;7.21;53.79;99698.41;6288103;27;96327;-63
2022/12/01 14:02:17;;;;;;;;;28.00;26.50;;;;;7.29;53.67;99700.16;6286275;27;96266;-64
2022/12/01 14:05:43;;;;;;;;;31.60;29.00;;;;;7.31;53.41;99698.97;6304772;27;96712;-65
2022/12/01 14:08:49;;;;;;;;;40.00;32.60;;;;;7.39;53.36;99700.75;6280389;27;97176;-65
2022/12/01 14:11:57;;;;;;;;;27.40;27.40;;;;;7.22;53.08;99696.56;6281499;27;96366;-63
2022/12/01 14:15:04;;;;;;;;;34.00;30.00;;;;;7.26;53.36;99695.19;6285282;27;96449;-65
2022/12/01 14:18:31;;;;;;;;;31.40;30.20;;;;;7.22;53.38;99689.34;6264942;27;96641;-63
2022/12/01 14:21:44;;;;;;;;;31.60;30.00;;;;;7.29;53.59;99690.28;6282926;27;96730;-65
2022/12/01 14:24:52;;;;;;;;;28.80;27.20;;;;;7.36;53.59;99696.59;6282626;27;98618;-65
2022/12/01 14:27:59;;;;;;;;;31.00;27.00;;;;;7.34;53.50;99703.13;6283239;27;96606;-65
2022/12/01 14:31:04;;;;;;;;;28.80;27.80;;;;;7.38;53.16;99702.59;6283572;27;96591;-64
2022/12/01 14:34:13;;;;;;;;;25.60;24.60;;;;;7.36;52.44;99698.44;6274552;27;97434;-64
2022/12/01 14:37:24;;;;;;;;;29.75;29.50;;;;;7.27;52.25;99695.00;6281882;27;97229;-63
2022/12/01 14:40:30;;;;;;;;;28.60;26.80;;;;;7.31;52.58;99685.56;6280251;27;98556;-65